sensor_id;sensor_type;location;lat;lon;timestamp;pressure;altitude;pressure_sealevel;temperature;humidity
83027;BME280;72842;56.038;12.706;2023-11-21T00:01:54;101379.69;;;7.29;68.45
83027;BME280;72842;56.038;12.706;2023-11-21T00:04:20;101381.56;;;7.27;68.64
83027;BME280;72842;56.038;12.706;2023-11-21T00:06:45;101390.41;;;7.27;67.81
83027;BME280;72842;56.038;12.706;2023-11-21T00:09:13;101380.63;;;7.28;68.56
83027;BME280;72842;56.038;12.706;2023-11-21T00:11:40;101382.44;;;7.27;67.98
83027;BME280;72842;56.038;12.706;2023-11-21T00:14:06;101386.03;;;7.26;67.66
83027;BME280;72842;56.038;12.706;2023-11-21T00:16:32;101372.72;;;7.26;68.34
83027;BME280;72842;56.038;12.706;2023-11-21T00:18:57;101384.25;;;7.27;68.46
83027;BME280;72842;56.038;12.706;2023-11-21T00:21:23;101383.47;;;7.25;68.26
83027;BME280;72842;56.038;12.706;2023-11-21T00:23:48;101386.03;;;7.26;67.73
83027;BME280;72842;56.038;12.706;2023-11-21T00:26:14;101387.00;;;7.25;68.62
83027;BME280;72842;56.038;12.706;2023-11-21T00:28:39;101383.47;;;7.25;68.42
83027;BME280;72842;56.038;12.706;2023-11-21T00:31:05;101387.09;;;7.24;67.65
83027;BME280;72842;56.038;12.706;2023-11-21T00:33:31;101388.03;;;7.23;67.78
83027;BME280;72842;56.038;12.706;2023-11-21T00:35:57;101392.47;;;7.22;67.51
83027;BME280;72842;56.038;12.706;2023-11-21T00:38:22;101393.34;;;7.23;67.66
83027;BME280;72842;56.038;12.706;2023-11-21T00:40:48;101397.72;;;7.24;68.31
83027;BME280;72842;56.038;12.706;2023-11-21T00:43:13;101393.50;;;7.20;67.37
83027;BME280;72842;56.038;12.706;2023-11-21T00:45:39;101404.00;;;7.23;67.61
83027;BME280;72842;56.038;12.706;2023-11-21T00:48:05;101399.59;;;7.22;67.36
83027;BME280;72842;56.038;12.706;2023-11-21T00:50:31;101404.84;;;7.23;68.06
83027;BME280;72842;56.038;12.706;2023-11-21T00:52:56;101414.66;;;7.23;67.62
83027;BME280;72842;56.038;12.706;2023-11-21T00:55:22;101417.31;;;7.23;67.80
83027;BME280;72842;56.038;12.706;2023-11-21T00:57:48;101419.97;;;7.23;67.48
83027;BME280;72842;56.038;12.706;2023-11-21T01:00:13;101421.84;;;7.21;68.33
83027;BME280;72842;56.038;12.706;2023-11-21T01:02:43;101432.47;;;7.21;67.81
83027;BME280;72842;56.038;12.706;2023-11-21T01:05:10;101441.25;;;7.23;67.40
83027;BME280;72842;56.038;12.706;2023-11-21T01:07:36;101432.38;;;7.22;68.10
83027;BME280;72842;56.038;12.706;2023-11-21T01:10:02;101446.59;;;7.23;67.31
83027;BME280;72842;56.038;12.706;2023-11-21T01:12:28;101443.13;;;7.21;67.18
83027;BME280;72842;56.038;12.706;2023-11-21T01:14:53;101450.16;;;7.22;67.56
83027;BME280;72842;56.038;12.706;2023-11-21T01:17:19;101453.78;;;7.21;67.76
83027;BME280;72842;56.038;12.706;2023-11-21T01:19:44;101458.25;;;7.20;68.04
83027;BME280;72842;56.038;12.706;2023-11-21T01:22:10;101449.41;;;7.20;68.16
83027;BME280;72842;56.038;12.706;2023-11-21T01:24:37;101454.63;;;7.21;68.12
83027;BME280;72842;56.038;12.706;2023-11-21T01:27:02;101446.91;;;7.17;67.23
83027;BME280;72842;56.038;12.706;2023-11-21T01:29:29;101460.91;;;7.20;67.01
83027;BME280;72842;56.038;12.706;2023-11-21T01:31:55;101469.75;;;7.21;66.96
83027;BME280;72842;56.038;12.706;2023-11-21T01:34:22;101470.78;;;7.18;68.07
83027;BME280;72842;56.038;12.706;2023-11-21T01:36:48;101474.31;;;7.19;67.05
83027;BME280;72842;56.038;12.706;2023-11-21T01:39:14;101477.72;;;7.21;66.89
83027;BME280;72842;56.038;12.706;2023-11-21T01:41:41;101474.22;;;7.20;67.25
83027;BME280;72842;56.038;12.706;2023-11-21T01:44:09;101486.66;;;7.20;67.26
83027;BME280;72842;56.038;12.706;2023-11-21T01:46:35;101490.19;;;7.20;67.64
83027;BME280;72842;56.038;12.706;2023-11-21T01:49:02;101492.00;;;7.20;67.70
83027;BME280;72842;56.038;12.706;2023-11-21T01:51:29;101490.28;;;7.19;67.05
83027;BME280;72842;56.038;12.706;2023-11-21T01:53:54;101490.34;;;7.17;67.81
83027;BME280;72842;56.038;12.706;2023-11-21T01:56:20;101493.06;;;7.16;67.33
83027;BME280;72842;56.038;12.706;2023-11-21T01:58:45;101500.06;;;7.18;67.84
83027;BME280;72842;56.038;12.706;2023-11-21T02:01:12;101506.25;;;7.19;67.66
83027;BME280;72842;56.038;12.706;2023-11-21T02:03:37;101496.59;;;7.16;66.94
83027;BME280;72842;56.038;12.706;2023-11-21T02:06:03;101501.16;;;7.14;67.29
83027;BME280;72842;56.038;12.706;2023-11-21T02:08:29;101502.94;;;7.14;67.39
83027;BME280;72842;56.038;12.706;2023-11-21T02:10:54;101505.59;;;7.14;67.47
83027;BME280;72842;56.038;12.706;2023-11-21T02:13:19;101510.94;;;7.14;66.62
83027;BME280;72842;56.038;12.706;2023-11-21T02:15:45;101510.94;;;7.14;67.01
83027;BME280;72842;56.038;12.706;2023-11-21T02:18:10;101514.44;;;7.14;66.55
83027;BME280;72842;56.038;12.706;2023-11-21T02:20:36;101514.53;;;7.13;66.60
83027;BME280;72842;56.038;12.706;2023-11-21T02:23:04;101512.66;;;7.15;66.86
83027;BME280;72842;56.038;12.706;2023-11-21T02:25:31;101507.31;;;7.15;66.56
83027;BME280;72842;56.038;12.706;2023-11-21T02:28:01;101512.66;;;7.15;66.99
83027;BME280;72842;56.038;12.706;2023-11-21T02:30:27;101516.13;;;7.17;66.49
83027;BME280;72842;56.038;12.706;2023-11-21T02:32:53;101520.53;;;7.16;66.63
83027;BME280;72842;56.038;12.706;2023-11-21T02:35:20;101524.97;;;7.17;66.83
83027;BME280;72842;56.038;12.706;2023-11-21T02:37:51;101526.91;;;7.14;66.46
83027;BME280;72842;56.038;12.706;2023-11-21T02:40:16;101534.88;;;7.14;66.86
83027;BME280;72842;56.038;12.706;2023-11-21T02:42:46;101542.72;;;7.17;67.36
83027;BME280;72842;56.038;12.706;2023-11-21T02:45:13;101539.13;;;7.18;66.59
83027;BME280;72842;56.038;12.706;2023-11-21T02:47:42;101542.72;;;7.17;66.92
83027;BME280;72842;56.038;12.706;2023-11-21T02:50:08;101524.47;;;7.09;67.02
83027;BME280;72842;56.038;12.706;2023-11-21T02:52:34;101542.00;;;7.13;67.03
83027;BME280;72842;56.038;12.706;2023-11-21T02:55:01;101549.81;;;7.16;67.26
83027;BME280;72842;56.038;12.706;2023-11-21T02:57:26;101552.56;;;7.15;66.82
83027;BME280;72842;56.038;12.706;2023-11-21T02:59:52;101548.91;;;7.17;67.28
83027;BME280;72842;56.038;12.706;2023-11-21T03:02:17;101553.44;;;7.15;67.38
83027;BME280;72842;56.038;12.706;2023-11-21T03:04:43;101557.91;;;7.15;67.44
83027;BME280;72842;56.038;12.706;2023-11-21T03:07:09;101553.50;;;7.14;66.86
83027;BME280;72842;56.038;12.706;2023-11-21T03:09:35;101563.22;;;7.15;67.34
83027;BME280;72842;56.038;12.706;2023-11-21T03:12:00;101566.06;;;7.12;66.56
83027;BME280;72842;56.038;12.706;2023-11-21T03:14:26;101566.75;;;7.15;66.75
83027;BME280;72842;56.038;12.706;2023-11-21T03:16:51;101565.88;;;7.15;66.40
83027;BME280;72842;56.038;12.706;2023-11-21T03:19:17;101568.53;;;7.15;66.30
83027;BME280;72842;56.038;12.706;2023-11-21T03:21:42;101570.44;;;7.13;66.29
83027;BME280;72842;56.038;12.706;2023-11-21T03:24:08;101577.47;;;7.14;66.94
83027;BME280;72842;56.038;12.706;2023-11-21T03:26:33;101572.16;;;7.14;66.98
83027;BME280;72842;56.038;12.706;2023-11-21T03:28:59;101583.75;;;7.13;66.68
83027;BME280;72842;56.038;12.706;2023-11-21T03:31:24;101585.63;;;7.11;67.22
83027;BME280;72842;56.038;12.706;2023-11-21T03:33:50;101595.38;;;7.10;67.14
83027;BME280;72842;56.038;12.706;2023-11-21T03:36:15;101598.13;;;7.09;67.00
83027;BME280;72842;56.038;12.706;2023-11-21T03:38:41;101608.78;;;7.09;66.33
83027;BME280;72842;56.038;12.706;2023-11-21T03:41:07;101613.31;;;7.07;66.31
83027;BME280;72842;56.038;12.706;2023-11-21T03:43:36;101615.19;;;7.05;67.13
83027;BME280;72842;56.038;12.706;2023-11-21T03:46:01;101617.91;;;7.03;67.26
83027;BME280;72842;56.038;12.706;2023-11-21T03:48:27;101625.03;;;7.02;66.21
83027;BME280;72842;56.038;12.706;2023-11-21T03:50:52;101633.09;;;7.01;66.63
83027;BME280;72842;56.038;12.706;2023-11-21T03:53:17;101624.41;;;6.97;66.25
83027;BME280;72842;56.038;12.706;2023-11-21T03:55:43;101639.38;;;7.00;67.05
83027;BME280;72842;56.038;12.706;2023-11-21T03:58:08;101637.69;;;6.97;67.22
83027;BME280;72842;56.038;12.706;2023-11-21T04:00:34;101635.03;;;6.97;66.99
83027;BME280;72842;56.038;12.706;2023-11-21T04:02:59;101647.47;;;6.97;66.56
83027;BME280;72842;56.038;12.706;2023-11-21T04:05:25;101644.91;;;6.95;66.59
83027;BME280;72842;56.038;12.706;2023-11-21T04:07:50;101653.81;;;6.94;66.48
83027;BME280;72842;56.038;12.706;2023-11-21T04:10:16;101663.53;;;6.95;66.42
83027;BME280;72842;56.038;12.706;2023-11-21T04:12:42;101668.06;;;6.93;67.36
83027;BME280;72842;56.038;12.706;2023-11-21T04:15:08;101672.53;;;6.93;66.34
83027;BME280;72842;56.038;12.706;2023-11-21T04:17:34;101673.41;;;6.93;66.41
83027;BME280;72842;56.038;12.706;2023-11-21T04:20:00;101675.25;;;6.91;66.93
83027;BME280;72842;56.038;12.706;2023-11-21T04:22:26;101688.50;;;6.93;66.68
83027;BME280;72842;56.038;12.706;2023-11-21T04:24:51;101697.41;;;6.92;67.10
83027;BME280;72842;56.038;12.706;2023-11-21T04:27:16;101698.28;;;6.92;66.30
83027;BME280;72842;56.038;12.706;2023-11-21T04:29:45;101685.97;;;6.90;66.65
83027;BME280;72842;56.038;12.706;2023-11-21T04:32:10;101699.13;;;6.93;66.30
83027;BME280;72842;56.038;12.706;2023-11-21T04:34:37;101695.66;;;6.91;67.28
83027;BME280;72842;56.038;12.706;2023-11-21T04:37:03;101706.19;;;6.94;67.02
83027;BME280;72842;56.038;12.706;2023-11-21T04:39:31;101718.63;;;6.93;66.35
83027;BME280;72842;56.038;12.706;2023-11-21T04:41:56;101718.72;;;6.92;66.33
83027;BME280;72842;56.038;12.706;2023-11-21T04:44:22;101722.16;;;6.94;66.45
83027;BME280;72842;56.038;12.706;2023-11-21T04:46:47;101718.63;;;6.93;67.31
83027;BME280;72842;56.038;12.706;2023-11-21T04:49:14;101720.44;;;6.93;67.20
83027;BME280;72842;56.038;12.706;2023-11-21T04:51:39;101721.28;;;6.93;66.52
83027;BME280;72842;56.038;12.706;2023-11-21T04:54:05;101726.69;;;6.92;66.85
83027;BME280;72842;56.038;12.706;2023-11-21T04:56:31;101716.16;;;6.89;67.03
83027;BME280;72842;56.038;12.706;2023-11-21T04:58:56;101732.06;;;6.90;67.25
83027;BME280;72842;56.038;12.706;2023-11-21T05:01:22;101732.91;;;6.91;66.60
83027;BME280;72842;56.038;12.706;2023-11-21T05:03:48;101740.91;;;6.91;66.58
83027;BME280;72842;56.038;12.706;2023-11-21T05:06:14;101741.84;;;6.90;67.33
83027;BME280;72842;56.038;12.706;2023-11-21T05:08:39;101741.06;;;6.88;66.33
83027;BME280;72842;56.038;12.706;2023-11-21T05:11:05;101742.69;;;6.90;66.63
83027;BME280;72842;56.038;12.706;2023-11-21T05:13:34;101746.22;;;6.91;66.58
83027;BME280;72842;56.038;12.706;2023-11-21T05:15:59;101748.03;;;6.90;66.65
83027;BME280;72842;56.038;12.706;2023-11-21T05:18:25;101746.31;;;6.89;66.19
83027;BME280;72842;56.038;12.706;2023-11-21T05:20:55;101746.22;;;6.91;66.22
83027;BME280;72842;56.038;12.706;2023-11-21T05:23:21;101756.00;;;6.90;66.52
83027;BME280;72842;56.038;12.706;2023-11-21T05:25:46;101763.97;;;6.90;66.98
83027;BME280;72842;56.038;12.706;2023-11-21T05:28:12;101757.88;;;6.88;66.77
83027;BME280;72842;56.038;12.706;2023-11-21T05:30:37;101765.00;;;6.88;66.82
83027;BME280;72842;56.038;12.706;2023-11-21T05:33:06;101760.53;;;6.88;66.61
83027;BME280;72842;56.038;12.706;2023-11-21T05:35:32;101765.88;;;6.88;66.23
83027;BME280;72842;56.038;12.706;2023-11-21T05:37:57;101765.88;;;6.88;66.37
83027;BME280;72842;56.038;12.706;2023-11-21T05:40:23;101751.13;;;6.81;66.48
83027;BME280;72842;56.038;12.706;2023-11-21T05:42:48;101765.78;;;6.90;67.17
83027;BME280;72842;56.038;12.706;2023-11-21T05:45:14;101763.13;;;6.90;66.73
83027;BME280;72842;56.038;12.706;2023-11-21T05:47:44;101772.78;;;6.92;66.15
83027;BME280;72842;56.038;12.706;2023-11-21T05:50:12;101776.34;;;6.91;66.65
83027;BME280;72842;56.038;12.706;2023-11-21T05:52:48;101778.22;;;6.89;66.92
83027;BME280;72842;56.038;12.706;2023-11-21T05:55:14;101772.91;;;6.89;66.20
83027;BME280;72842;56.038;12.706;2023-11-21T05:57:42;101782.59;;;6.90;67.16
83027;BME280;72842;56.038;12.706;2023-11-21T06:00:10;101787.94;;;6.90;67.24
83027;BME280;72842;56.038;12.706;2023-11-21T06:02:40;101792.41;;;6.90;66.81
83027;BME280;72842;56.038;12.706;2023-11-21T06:05:09;101803.03;;;6.90;66.70
83027;BME280;72842;56.038;12.706;2023-11-21T06:07:35;101807.50;;;6.89;67.25
83027;BME280;72842;56.038;12.706;2023-11-21T06:10:05;101812.03;;;6.87;66.97
83027;BME280;72842;56.038;12.706;2023-11-21T06:12:38;101812.03;;;6.87;66.89
83027;BME280;72842;56.038;12.706;2023-11-21T06:15:05;101809.50;;;6.84;66.74
83027;BME280;72842;56.038;12.706;2023-11-21T06:17:34;101811.25;;;6.85;66.42
83027;BME280;72842;56.038;12.706;2023-11-21T06:20:03;101807.84;;;6.82;67.22
83027;BME280;72842;56.038;12.706;2023-11-21T06:22:35;101817.69;;;6.80;66.61
83027;BME280;72842;56.038;12.706;2023-11-21T06:25:01;101816.78;;;6.81;66.64
83027;BME280;72842;56.038;12.706;2023-11-21T06:27:27;101825.59;;;6.81;67.17
83027;BME280;72842;56.038;12.706;2023-11-21T06:29:53;101823.03;;;6.80;67.01
83027;BME280;72842;56.038;12.706;2023-11-21T06:32:18;101827.47;;;6.79;66.50
83027;BME280;72842;56.038;12.706;2023-11-21T06:34:45;101822.16;;;6.79;67.40
83027;BME280;72842;56.038;12.706;2023-11-21T06:37:11;101832.06;;;6.75;66.41
83027;BME280;72842;56.038;12.706;2023-11-21T06:39:37;101853.16;;;6.80;67.30
83027;BME280;72842;56.038;12.706;2023-11-21T06:42:03;101853.16;;;6.80;66.49
83027;BME280;72842;56.038;12.706;2023-11-21T06:44:29;101864.66;;;6.81;66.71
83027;BME280;72842;56.038;12.706;2023-11-21T06:46:55;101861.06;;;6.82;67.21
83027;BME280;72842;56.038;12.706;2023-11-21T06:49:20;101871.63;;;6.83;67.18
83027;BME280;72842;56.038;12.706;2023-11-21T06:51:45;101882.25;;;6.83;66.93
83027;BME280;72842;56.038;12.706;2023-11-21T06:54:11;101872.72;;;6.79;66.37
83027;BME280;72842;56.038;12.706;2023-11-21T06:56:37;101884.84;;;6.85;67.00
83027;BME280;72842;56.038;12.706;2023-11-21T06:59:04;101893.72;;;6.85;66.88
83027;BME280;72842;56.038;12.706;2023-11-21T07:01:30;101900.78;;;6.86;66.12
83027;BME280;72842;56.038;12.706;2023-11-21T07:03:59;101896.44;;;6.84;66.06
83027;BME280;72842;56.038;12.706;2023-11-21T07:06:25;101895.63;;;6.82;66.77
83027;BME280;72842;56.038;12.706;2023-11-21T07:08:50;101898.38;;;6.80;66.69
83027;BME280;72842;56.038;12.706;2023-11-21T07:11:15;101905.34;;;6.83;66.50
83027;BME280;72842;56.038;12.706;2023-11-21T07:13:41;101899.16;;;6.82;66.82
83027;BME280;72842;56.038;12.706;2023-11-21T07:16:07;101912.47;;;6.82;66.51
83027;BME280;72842;56.038;12.706;2023-11-21T07:18:32;101909.81;;;6.82;65.96
83027;BME280;72842;56.038;12.706;2023-11-21T07:20:58;101914.19;;;6.83;66.56
83027;BME280;72842;56.038;12.706;2023-11-21T07:23:24;101914.19;;;6.83;66.64
83027;BME280;72842;56.038;12.706;2023-11-21T07:25:49;101919.50;;;6.83;66.29
83027;BME280;72842;56.038;12.706;2023-11-21T07:28:15;101931.88;;;6.84;66.26
83027;BME280;72842;56.038;12.706;2023-11-21T07:30:40;101928.44;;;6.82;66.94
83027;BME280;72842;56.038;12.706;2023-11-21T07:33:05;101936.41;;;6.82;65.87
83027;BME280;72842;56.038;12.706;2023-11-21T07:35:32;101930.31;;;6.80;66.85
83027;BME280;72842;56.038;12.706;2023-11-21T07:37:58;101945.31;;;6.81;66.61
83027;BME280;72842;56.038;12.706;2023-11-21T07:40:23;101940.78;;;6.83;66.46
83027;BME280;72842;56.038;12.706;2023-11-21T07:42:48;101950.47;;;6.86;65.77
83027;BME280;72842;56.038;12.706;2023-11-21T07:45:15;101947.06;;;6.82;66.20
83027;BME280;72842;56.038;12.706;2023-11-21T07:47:40;101960.97;;;6.89;65.82
83027;BME280;72842;56.038;12.706;2023-11-21T07:50:06;101963.63;;;6.89;66.13
83027;BME280;72842;56.038;12.706;2023-11-21T07:52:32;101972.38;;;6.91;65.83
83027;BME280;72842;56.038;12.706;2023-11-21T07:54:58;101963.69;;;6.87;66.31
83027;BME280;72842;56.038;12.706;2023-11-21T07:57:24;101975.00;;;6.92;66.33
83027;BME280;72842;56.038;12.706;2023-11-21T07:59:49;101983.00;;;6.92;66.50
83027;BME280;72842;56.038;12.706;2023-11-21T08:02:15;101986.53;;;6.93;65.89
83027;BME280;72842;56.038;12.706;2023-11-21T08:04:42;101983.00;;;6.92;66.46
83027;BME280;72842;56.038;12.706;2023-11-21T08:07:08;101982.06;;;6.93;66.59
83027;BME280;72842;56.038;12.706;2023-11-21T08:09:34;101987.22;;;6.96;66.09
83027;BME280;72842;56.038;12.706;2023-11-21T08:12:00;101997.88;;;6.96;66.54
83027;BME280;72842;56.038;12.706;2023-11-21T08:14:27;102004.06;;;6.97;66.45
83027;BME280;72842;56.038;12.706;2023-11-21T08:16:53;102010.25;;;6.97;65.80
83027;BME280;72842;56.038;12.706;2023-11-21T08:19:23;102017.31;;;6.98;65.36
83027;BME280;72842;56.038;12.706;2023-11-21T08:21:50;102020.00;;;6.98;65.62
83027;BME280;72842;56.038;12.706;2023-11-21T08:24:16;102026.09;;;7.00;65.19
83027;BME280;72842;56.038;12.706;2023-11-21T08:26:41;102017.25;;;7.00;65.12
83027;BME280;72842;56.038;12.706;2023-11-21T08:29:07;102022.50;;;7.01;65.88
83027;BME280;72842;56.038;12.706;2023-11-21T08:31:32;102043.81;;;7.01;64.96
83027;BME280;72842;56.038;12.706;2023-11-21T08:33:58;102034.88;;;7.02;65.45
83027;BME280;72842;56.038;12.706;2023-11-21T08:36:24;102041.06;;;7.03;65.60
83027;BME280;72842;56.038;12.706;2023-11-21T08:38:50;102045.41;;;7.06;65.32
83027;BME280;72842;56.038;12.706;2023-11-21T08:41:19;102041.81;;;7.07;64.86
83027;BME280;72842;56.038;12.706;2023-11-21T08:43:50;102043.53;;;7.08;64.60
83027;BME280;72842;56.038;12.706;2023-11-21T08:46:16;102045.25;;;7.09;64.72
83027;BME280;72842;56.038;12.706;2023-11-21T08:48:43;102053.19;;;7.10;64.42
83027;BME280;72842;56.038;12.706;2023-11-21T08:51:10;102053.19;;;7.10;65.18
83027;BME280;72842;56.038;12.706;2023-11-21T08:53:37;102055.06;;;7.08;64.91
83027;BME280;72842;56.038;12.706;2023-11-21T08:56:03;102055.84;;;7.10;64.32
83027;BME280;72842;56.038;12.706;2023-11-21T08:58:30;102057.63;;;7.10;64.90
83027;BME280;72842;56.038;12.706;2023-11-21T09:00:57;102064.84;;;7.08;64.21
83027;BME280;72842;56.038;12.706;2023-11-21T09:03:23;102067.50;;;7.08;64.40
83027;BME280;72842;56.038;12.706;2023-11-21T09:05:48;102069.38;;;7.06;64.04
83027;BME280;72842;56.038;12.706;2023-11-21T09:08:13;102075.63;;;7.05;64.47
83027;BME280;72842;56.038;12.706;2023-11-21T09:10:39;102080.97;;;7.03;64.00
83027;BME280;72842;56.038;12.706;2023-11-21T09:13:04;102093.44;;;7.02;64.17
83027;BME280;72842;56.038;12.706;2023-11-21T09:15:30;102088.97;;;7.03;63.28
83027;BME280;72842;56.038;12.706;2023-11-21T09:17:55;102095.16;;;7.03;63.62
83027;BME280;72842;56.038;12.706;2023-11-21T09:20:21;102093.44;;;7.02;63.55
83027;BME280;72842;56.038;12.706;2023-11-21T09:22:48;102100.56;;;7.02;63.90
83027;BME280;72842;56.038;12.706;2023-11-21T09:25:14;102106.69;;;7.04;63.29
83027;BME280;72842;56.038;12.706;2023-11-21T09:27:40;102114.63;;;7.06;63.39
83027;BME280;72842;56.038;12.706;2023-11-21T09:30:07;102115.47;;;7.06;62.95
83027;BME280;72842;56.038;12.706;2023-11-21T09:32:37;102112.03;;;7.04;62.92
83027;BME280;72842;56.038;12.706;2023-11-21T09:35:04;102118.22;;;7.05;63.19
83027;BME280;72842;56.038;12.706;2023-11-21T09:37:30;102124.41;;;7.05;63.11
83027;BME280;72842;56.038;12.706;2023-11-21T09:39:56;102123.53;;;7.05;62.65
83027;BME280;72842;56.038;12.706;2023-11-21T09:42:39;102131.63;;;7.01;61.78
83027;BME280;72842;56.038;12.706;2023-11-21T09:45:39;102136.16;;;6.99;61.47
83027;BME280;72842;56.038;12.706;2023-11-21T09:48:05;102134.28;;;7.01;62.73
83027;BME280;72842;56.038;12.706;2023-11-21T09:50:32;102136.88;;;7.03;62.37
83027;BME280;72842;56.038;12.706;2023-11-21T09:55:35;102137.69;;;7.05;62.66
83027;BME280;72842;56.038;12.706;2023-11-21T09:58:04;102134.44;;;6.98;60.40
83027;BME280;72842;56.038;12.706;2023-11-21T10:00:33;102138.63;;;7.04;62.24
83027;BME280;72842;56.038;12.706;2023-11-21T10:02:59;102134.03;;;7.08;62.62
83027;BME280;72842;56.038;12.706;2023-11-21T10:05:25;102137.50;;;7.10;62.16
83027;BME280;72842;56.038;12.706;2023-11-21T10:07:51;102144.56;;;7.11;61.72
83027;BME280;72842;56.038;12.706;2023-11-21T10:10:18;102143.69;;;7.10;61.92
83027;BME280;72842;56.038;12.706;2023-11-21T10:12:49;102148.09;;;7.11;61.80
83027;BME280;72842;56.038;12.706;2023-11-21T10:15:16;102160.41;;;7.14;61.83
83027;BME280;72842;56.038;12.706;2023-11-21T10:17:44;102157.75;;;7.14;61.84
83027;BME280;72842;56.038;12.706;2023-11-21T10:20:11;102164.72;;;7.16;61.58
83027;BME280;72842;56.038;12.706;2023-11-21T10:22:39;102167.34;;;7.18;61.21
83027;BME280;72842;56.038;12.706;2023-11-21T10:25:07;102169.09;;;7.19;61.02
83027;BME280;72842;56.038;12.706;2023-11-21T10:27:34;102168.22;;;7.18;61.14
83027;BME280;72842;56.038;12.706;2023-11-21T10:30:03;102176.13;;;7.20;60.72
83027;BME280;72842;56.038;12.706;2023-11-21T10:32:33;102176.03;;;7.23;60.88
83027;BME280;72842;56.038;12.706;2023-11-21T10:34:59;102174.25;;;7.22;60.74
83027;BME280;72842;56.038;12.706;2023-11-21T10:37:34;102166.41;;;7.19;61.16
83027;BME280;72842;56.038;12.706;2023-11-21T10:40:00;102176.19;;;7.18;61.54
83027;BME280;72842;56.038;12.706;2023-11-21T10:42:25;102176.28;;;7.17;61.00
83027;BME280;72842;56.038;12.706;2023-11-21T10:44:52;102178.94;;;7.17;60.79
83027;BME280;72842;56.038;12.706;2023-11-21T10:47:19;102176.28;;;7.17;61.36
83027;BME280;72842;56.038;12.706;2023-11-21T10:49:48;102178.19;;;7.13;61.17
83027;BME280;72842;56.038;12.706;2023-11-21T10:52:14;102185.16;;;7.16;61.27
83027;BME280;72842;56.038;12.706;2023-11-21T10:54:43;102184.38;;;7.14;60.13
83027;BME280;72842;56.038;12.706;2023-11-21T10:57:10;102185.31;;;7.13;61.29
83027;BME280;72842;56.038;12.706;2023-11-21T10:59:36;102188.75;;;7.15;61.24
83027;BME280;72842;56.038;12.706;2023-11-21T11:02:16;102193.97;;;7.18;60.41
83027;BME280;72842;56.038;12.706;2023-11-21T11:04:48;102187.03;;;7.14;60.91
83027;BME280;72842;56.038;12.706;2023-11-21T11:07:14;102195.56;;;7.22;60.62
83027;BME280;72842;56.038;12.706;2023-11-21T11:09:41;102192.63;;;7.29;59.87
83027;BME280;72842;56.038;12.706;2023-11-21T11:12:08;102191.53;;;7.34;60.76
83027;BME280;72842;56.038;12.706;2023-11-21T11:14:35;102186.28;;;7.32;60.51
83027;BME280;72842;56.038;12.706;2023-11-21T11:17:01;102202.94;;;7.37;60.77
83027;BME280;72842;56.038;12.706;2023-11-21T11:19:27;102207.28;;;7.40;60.78
83027;BME280;72842;56.038;12.706;2023-11-21T11:22:28;102207.81;;;7.48;60.62
83027;BME280;72842;56.038;12.706;2023-11-21T11:25:18;102204.72;;;7.58;60.25
83027;BME280;72842;56.038;12.706;2023-11-21T11:27:56;102208.59;;;7.72;59.15
83027;BME280;72842;56.038;12.706;2023-11-21T11:33:39;102213.28;;;7.87;59.18
83027;BME280;72842;56.038;12.706;2023-11-21T11:36:13;102214.81;;;7.93;59.38
83027;BME280;72842;56.038;12.706;2023-11-21T11:38:45;102219.16;;;7.95;59.56
83027;BME280;72842;56.038;12.706;2023-11-21T11:41:11;102224.38;;;7.98;59.41
83027;BME280;72842;56.038;12.706;2023-11-21T11:43:37;102229.41;;;8.04;59.08
83027;BME280;72842;56.038;12.706;2023-11-21T11:46:10;102215.81;;;8.10;58.92
83027;BME280;72842;56.038;12.706;2023-11-21T11:48:39;102231.22;;;8.24;58.08
83027;BME280;72842;56.038;12.706;2023-11-21T11:51:12;102241.41;;;8.35;58.28
83027;BME280;72842;56.038;12.706;2023-11-21T11:53:46;102233.63;;;8.51;57.57
83027;BME280;72842;56.038;12.706;2023-11-21T11:56:27;102237.94;;;8.53;57.27
83027;BME280;72842;56.038;12.706;2023-11-21T11:58:57;102237.59;;;8.61;57.15
83027;BME280;72842;56.038;12.706;2023-11-21T12:01:25;102239.56;;;8.76;56.56
83027;BME280;72842;56.038;12.706;2023-11-21T12:07:05;102249.97;;;9.01;56.25
83027;BME280;72842;56.038;12.706;2023-11-21T12:09:31;102257.34;;;9.15;56.25
83027;BME280;72842;56.038;12.706;2023-11-21T12:11:57;102260.50;;;9.23;56.30
83027;BME280;72842;56.038;12.706;2023-11-21T12:14:22;102261.22;;;9.27;55.99
83027;BME280;72842;56.038;12.706;2023-11-21T12:16:48;102268.78;;;9.36;55.77
83027;BME280;72842;56.038;12.706;2023-11-21T12:19:14;102262.16;;;9.44;55.40
83027;BME280;72842;56.038;12.706;2023-11-21T12:21:40;102263.16;;;9.42;55.39
83027;BME280;72842;56.038;12.706;2023-11-21T12:24:09;102281.63;;;9.46;55.23
83027;BME280;72842;56.038;12.706;2023-11-21T12:26:35;102276.00;;;9.53;55.16
83027;BME280;72842;56.038;12.706;2023-11-21T12:29:02;102272.75;;;9.46;55.38
83027;BME280;72842;56.038;12.706;2023-11-21T12:31:29;102266.69;;;9.24;55.87
83027;BME280;72842;56.038;12.706;2023-11-21T12:33:55;102281.16;;;9.19;56.11
83027;BME280;72842;56.038;12.706;2023-11-21T12:36:22;102285.94;;;9.13;55.89
83027;BME280;72842;56.038;12.706;2023-11-21T12:38:47;102286.50;;;9.01;55.80
83027;BME280;72842;56.038;12.706;2023-11-21T12:41:12;102287.13;;;8.87;56.33
83027;BME280;72842;56.038;12.706;2023-11-21T12:43:38;102284.88;;;8.78;55.88
83027;BME280;72842;56.038;12.706;2023-11-21T12:46:06;102293.97;;;8.74;56.07
83027;BME280;72842;56.038;12.706;2023-11-21T12:48:32;102296.06;;;8.86;55.54
83027;BME280;72842;56.038;12.706;2023-11-21T12:50:57;102295.72;;;8.94;55.28
83027;BME280;72842;56.038;12.706;2023-11-21T12:53:26;102296.34;;;8.99;55.26
83027;BME280;72842;56.038;12.706;2023-11-21T12:55:51;102305.88;;;9.04;55.18
83027;BME280;72842;56.038;12.706;2023-11-21T12:58:17;102308.44;;;9.07;55.13